Tiempo atmosférico en la estación meteorológica de Puebla De Obando, Badajoz (392 m.)



Fecha
DESCASC
Temp. máxima en grados centígrados (hora)
DESCASC
Temp. mínima en grados centígrados (hora)
DESCASC
Temp. media en grados centígrados
DESCASC
Racha de viento máxima en m/sg (hora)
DESCASC
Velocidad máxima media en intervalos de 10 minutos(hora)
DESCASC
Precipitaciones diarias en mm
DESCASC
Precipitaciones de 00:00 a 06:00 en mm
DESCASC
Precipitaciones de 06:00 a 12:00 en mm
DESCASC
Precipitaciones de 12:00 a 18:00 en mm
DESCASC
Precipitaciones de 18:00 a 24:00 en mm
DESCASC
23-06-2019 30.8 (16:30) 11.8 (07:10) 21.3 8.61 (15:10) 4.72 (14:30) 0 0 0 0 0
22-06-2019 32.4 (17:50) 13.3 (07:30) 22.9 9.44 (18:00) 5.56 (16:50) 0 0 0 0 0
21-06-2019 30.6 (20:00) 11.3 (07:00) 21 9.17 (15:00) 5.56 (21:50) 0 0 0 0 0
20-06-2019 27.3 (17:20) 13.7 (00:00) 20.5 11.67 (13:20) 6.67 (20:30) 0 0 0 0 0
19-06-2019 25.6 (18:40) 15.8 (00:00) 20.7 -- (--) -- (--) 0 0 0 0 0
18-06-2019 27.2 (16:30) 9.4 (00:00) 18.3 13.61 (17:40) 8.33 (18:00) 0 0 0 0 0
17-06-2019 31.1 (18:20) 9.6 (00:00) 20.4 10 (16:30) 6.39 (19:50) 0 0 0 0 0
16-06-2019 29.4 (19:40) 11.3 (00:00) 20.3 8.33 (15:20) 5.28 (15:20) 0 0 0 0 0
15-06-2019 26.7 (18:00) 7.5 (00:00) 17.1 9.72 (16:10) 4.17 (16:10) 0 0 0 0 0
14-06-2019 21.6 (14:50) 8 (00:00) 14.8 14.17 (14:00) 8.61 (15:30) 0 0 0 0 0
13-06-2019 26.4 (18:20) 4.4 (00:00) 15.4 10.83 (18:30) 6.39 (21:40) 0 0 0 0 0
12-06-2019 27.8 (18:40) 10.7 (00:00) 19.2 10.28 (18:20) 6.11 (22:50) 0 0 0 0 0
11-06-2019 24.6 (16:10) 11.4 (00:00) 18 13.61 (14:00) 7.78 (15:30) 0 0 0 0 0
10-06-2019 27.9 (18:10) 10.7 (00:00) 19.3 10.83 (22:50) 6.94 (22:50) 0 0 0 0 0
09-06-2019 27.1 (16:50) 7.2 (00:00) 17.2 13.33 (15:20) 7.78 (19:10) 0 0 0 0 0
08-06-2019 28 (16:50) 11.5 (00:00) 19.8 9.17 (22:30) 5.83 (22:30) 0 0 0 0 0
07-06-2019 22.8 (18:30) 8 (00:00) 15.4 9.44 (17:20) 6.11 (00:10) 0.2 0.2 0 0 0
06-06-2019 22.9 (17:50) 7 (00:00) 14.9 15.28 (23:20) 9.17 (20:20) 0.2 0 0 0 0.2
05-06-2019 22.5 (17:30) 10.1 (00:00) 16.3 10.83 (13:50) 6.94 (19:50) 0 0 0 0 0
04-06-2019 26.2 (15:50) 13 (00:00) 19.6 12.5 (18:00) 8.89 (18:00) 0 0 0 0 0
03-06-2019 33.4 (15:50) 15.7 (00:00) 24.6 11.67 (18:40) 7.22 (17:50) 0 0 0 0 0
02-06-2019 36 (17:20) 15.8 (00:00) 25.9 10 (20:40) 6.67 (20:10) 0 0 0 0 0
01-06-2019 35.4 (18:10) 18 (00:00) 26.7 8.33 (16:00) 3.89 (17:20) 0 0 0 0 0
31-05-2019 34.4 (17:30) 14.6 (00:00) 24.5 10 (16:00) 5.83 (14:40) 0 0 0 0 0
30-05-2019 33.3 (17:30) 16.9 (00:00) 25.1 10.28 (17:20) 6.39 (14:50) 0 0 0 0 0
29-05-2019 31.4 (17:30) 16.5 (00:00) 23.9 9.44 (19:20) 6.11 (18:30) 0 0 0 0 0
28-05-2019 30.9 (17:40) 15.8 (00:00) 23.3 11.11 (16:00) 5.83 (19:30) 0 0 0 0 0
27-05-2019 32.8 (16:40) 16.2 (00:00) 24.5 10.56 (18:10) 6.67 (19:10) 0 0 0 0 0
26-05-2019 30.4 (18:00) 15.7 (00:00) 23 12.22 (17:30) 6.67 (19:00) 0 0 0 0 0
25-05-2019 27.5 (18:20) 13.5 (00:00) 20.5 12.22 (17:10) 5 (20:40) 0 0 0 0 0

Gráficas

Temp. máximas Temp. mínimas Temp. medias Precipitaciones Rachas de viento máximas Velocidades máximas media en intervalos de 10 minutos

Datos horarios

Fecha y hora oficial Temperatura (ºC) Velocidad del viento (km/h) Dirección del viento Racha (km/h) Dirección de racha Precipitación (mm) Presión (hPa) Tendencia (hPa) Humedad (%)
2019-06-23 23:00:00 24.1 13 Noroeste 26 Noroeste 0 -- -- 61
2019-06-23 22:00:00 25.5 11 Noroeste 23 Noroeste 0 -- -- 48
2019-06-23 21:00:00 26.5 15 Noroeste 23 Noroeste 0 -- -- 46
2019-06-23 20:00:00 27.5 15 Noroeste 23 Noroeste 0 -- -- 31
2019-06-23 19:00:00 28.5 10 Noroeste 22 Oeste 0 -- -- 24
2019-06-23 18:00:00 29.5 14 Oeste 26 Oeste 0 -- -- 20
2019-06-23 17:00:00 29.9 14 Sudoeste 26 Oeste 0 -- -- 22
2019-06-23 16:00:00 30.5 15 Oeste 31 Oeste 0 -- -- 21
2019-06-23 15:00:00 29.7 13 Oeste 29 Oeste 0 -- -- 22
2019-06-23 14:00:00 28.7 15 Sudoeste 31 Sur 0 -- -- 24
2019-06-23 13:00:00 27.4 12 Sudoeste 26 Sudoeste 0 -- -- 27
2019-06-23 12:00:00 25.8 11 Sudoeste 21 Sudoeste 0 -- -- 30
2019-06-23 11:00:00 23.5 8 Sudoeste 13 Sudoeste 0 -- -- 40
2019-06-23 10:00:00 20.8 5 Oeste 10 Oeste 0 -- -- 49
2019-06-23 09:00:00 18.2 6 Oeste 14 Oeste 0 -- -- 51
2019-06-23 08:00:00 16.3 5 Noroeste 12 Sudeste 0 -- -- 54
2019-06-23 07:00:00 12.1 4 Sudeste 6 Sudeste 0 -- -- 63
2019-06-23 06:00:00 13.4 0 Calma 9 Noroeste 0 -- -- 59
2019-06-23 05:00:00 14.7 7 Noroeste 10 Noroeste 0 -- -- 55
2019-06-23 04:00:00 15.7 0 Calma 10 Noroeste 0 -- -- 48
2019-06-23 03:00:00 17.8 9 Noroeste 15 Oeste 0 -- -- 43
2019-06-23 02:00:00 17.9 8 Oeste 10 Noroeste 0 -- -- 36
2019-06-23 01:00:00 19.8 8 Noroeste 10 Oeste 0 -- -- 30
2019-06-23 00:00:00 21.8 10 Oeste 17 Noroeste 0 -- -- 27
2019-06-22 23:00:00 23.6 10 Noroeste 15 Noroeste 0 -- -- 23
2019-06-22 22:00:00 26.5 10 Noroeste 26 Noroeste 0 -- -- 21
2019-06-22 21:00:00 29.9 17 Noroeste 29 Noroeste 0 -- -- 19
2019-06-22 20:00:00 30.8 14 Oeste 31 Oeste 0 -- -- 18
2019-06-22 19:00:00 31.9 18 Sudoeste 34 Oeste 0 -- -- 18
2019-06-22 18:00:00 32.3 20 Oeste 34 Oeste 0 -- -- 19
2019-06-22 17:00:00 32.1 14 Oeste 33 Oeste 0 -- -- 20
2019-06-22 16:00:00 31.7 9 Oeste 30 Oeste 0 -- -- 22
2019-06-22 15:00:00 30.2 18 Sudoeste 31 Sudoeste 0 -- -- 25
2019-06-22 14:00:00 29.3 17 Sur 28 Sudoeste 0 -- -- 27
2019-06-22 13:00:00 28.6 11 Sur 21 Sur 0 -- -- 29
2019-06-22 12:00:00 26 10 Sudoeste 17 Sudoeste 0 -- -- 37
2019-06-22 11:00:00 24.5 8 Sur 13 Sur 0 -- -- 44
2019-06-22 10:00:00 22.6 6 Sudeste 9 Sudeste 0 -- -- 48
2019-06-22 09:00:00 18.8 4 Sudeste 9 Sudeste 0 -- -- 60
2019-06-22 08:00:00 14.5 6 Sudeste 9 Este 0 -- -- 76
2019-06-22 07:00:00 13.8 5 Este 9 Este 0 -- -- 77
2019-06-22 06:00:00 15.4 2 Norte 6 Noroeste 0 -- -- 73
2019-06-22 05:00:00 16.3 3 Norte 9 Noroeste 0 -- -- 71
2019-06-22 04:00:00 16.7 6 Noroeste 8 Noroeste 0 -- -- 69
2019-06-22 03:00:00 16.9 7 Oeste 15 Oeste 0 -- -- 66
2019-06-22 02:00:00 18.9 14 Noroeste 15 Noroeste 0 -- -- 61
2019-06-22 01:00:00 19.9 9 Noroeste 19 Noroeste 0 -- -- 57
2019-06-22 00:00:00 21.8 10 Noroeste 24 Noroeste 0 -- -- 51
2019-06-21 23:00:00 23 12 Noroeste 24 Oeste 0 -- -- 47
2019-06-21 22:00:00 25.5 15 Oeste 31 Oeste 0 -- -- 40
2019-06-21 21:00:00 29.2 6 Noroeste 19 Oeste 0 -- -- 24
2019-06-21 20:00:00 30.6 5 Norte 22 Noroeste 0 -- -- 24
2019-06-21 19:00:00 30.5 9 Oeste 28 Norte 0 -- -- 24
2019-06-21 18:00:00 30.1 9 Noroeste 30 Nordeste 0 -- -- 24
2019-06-21 17:00:00 29.9 10 Norte 28 Norte 0 -- -- 24
2019-06-21 16:00:00 29.4 12 Oeste 27 Noroeste 0 -- -- 27
2019-06-21 15:00:00 28.1 14 Noroeste 33 Noroeste 0 -- -- 32
2019-06-21 14:00:00 27.2 11 Noroeste 24 Oeste 0 -- -- 36
2019-06-21 13:00:00 25.7 9 Oeste 24 Noroeste 0 -- -- 43
2019-06-21 12:00:00 23.8 10 Oeste 24 Oeste 0 -- -- 48
2019-06-21 11:00:00 21.6 7 Oeste 17 Oeste 0 -- -- 54
2019-06-21 10:00:00 18.9 8 Noroeste 16 Noroeste 0 -- -- 62
2019-06-21 09:00:00 16.4 8 Noroeste 13 Oeste 0 -- -- 70
2019-06-21 08:00:00 13.5 4 Oeste 9 Oeste 0 -- -- 83
2019-06-21 07:00:00 11.3 8 Oeste 9 Oeste 0 -- -- 90
2019-06-21 06:00:00 11.6 7 Oeste 12 Oeste 0 -- -- 89
2019-06-21 05:00:00 11.9 9 Noroeste 12 Noroeste 0 -- -- 87
2019-06-21 04:00:00 12.8 7 Noroeste 14 Noroeste 0 -- -- 84
2019-06-21 03:00:00 13.9 10 Noroeste 18 Oeste 0 -- -- 80
2019-06-21 02:00:00 15.3 13 Noroeste 24 Noroeste 0 -- -- 74
2019-06-21 01:00:00 16.6 15 Noroeste 24 Noroeste 0 -- -- 68
2019-06-21 00:00:00 17.6 13 Noroeste 27 Oeste 0 -- -- 63
2019-06-20 23:00:00 18.9 13 Noroeste 28 Oeste 0 -- -- 58
2019-06-20 22:00:00 20.9 19 Oeste 32 Oeste 0 -- -- 52
2019-06-20 21:00:00 23.8 20 Oeste 37 Oeste 0 -- -- 44
2019-06-20 20:00:00 25.3 23 Oeste 35 Oeste 0 -- -- 41
2019-06-20 19:00:00 26.2 23 Oeste 36 Oeste 0 -- -- 38
2019-06-20 18:00:00 26.2 15 Sudoeste 37 Oeste 0 -- -- 36
2019-06-20 17:00:00 27 15 Oeste 36 Sudoeste 0 -- -- 33
2019-06-20 16:00:00 26.3 17 Sudoeste 39 Sudoeste 0 -- -- 35
2019-06-20 15:00:00 25.4 18 Oeste 33 Oeste 0 -- -- 39
2019-06-20 14:00:00 24.9 14 Oeste 42 Sudoeste 0 -- -- 44
2019-06-20 13:00:00 23.4 21 Oeste 34 Oeste 0 -- -- 48
2019-06-20 12:00:00 22.8 19 Oeste 30 Oeste 0 -- -- 52
2019-06-20 11:00:00 20.6 12 Sudoeste 21 Sudoeste 0 -- -- 60
2019-06-20 10:00:00 20.5 9 Sudoeste 14 Oeste 0 -- -- 62
2019-06-20 09:00:00 17 0 Calma 5 Noroeste 0 -- -- 78
2019-06-20 08:00:00 14.8 2 Este 8 Sudoeste 0 -- -- 89
2019-06-20 07:00:00 14.2 5 Oeste 9 Oeste 0 -- -- 90
2019-06-20 06:00:00 13.8 7 Oeste 11 Noroeste 0 -- -- 90
2019-06-20 05:00:00 14.5 8 Oeste 10 Oeste 0 -- -- 87
2019-06-20 04:00:00 14.7 5 Oeste 8 Oeste 0 -- -- 84
2019-06-20 03:00:00 16.1 3 Noroeste 15 Norte 0 -- -- 79
2019-06-20 02:00:00 17.1 7 Noroeste 14 Noroeste 0 -- -- 75
2019-06-20 01:00:00 18 9 Noroeste 15 Noroeste 0 -- -- 70
2019-06-20 00:00:00 18.7 9 Noroeste 13 Noroeste 0 -- -- 68
2019-06-19 23:00:00 19.5 8 Noroeste 12 Oeste 0 -- -- 65
2019-06-19 22:00:00 21.8 6 Oeste 21 Oeste 0 -- -- 58
2019-06-19 21:00:00 23.5 15 Oeste 25 Oeste 0 -- -- 53
2019-06-19 20:00:00 24.3 15 Oeste 29 Oeste 0 -- -- 51
2019-06-19 19:00:00 25 12 Oeste 27 Sudoeste 0 -- -- 49
2019-06-19 18:00:00 25 14 Oeste 27 Oeste 0 -- -- 50
2019-06-19 17:00:00 24.1 15 Sudoeste 27 Oeste 0 -- -- 52
2019-06-19 16:00:00 23.6 18 Oeste 28 Oeste 0 -- -- 53
2019-06-19 15:00:00 23.8 -- -- -- -- 0 -- -- 52
2019-06-19 14:00:00 21.5 17 Oeste 29 Sudoeste 0 -- -- 62
2019-06-19 13:00:00 20.4 12 Sudoeste 22 Oeste 0 -- -- 67
2019-06-19 12:00:00 20.3 9 Sudoeste 18 Sur 0 -- -- 69
2019-06-19 11:00:00 19.5 -- -- -- -- 0 -- -- 74
2019-06-19 10:00:00 18 8 Sudoeste 17 Sudoeste 0 -- -- 82
2019-06-19 09:00:00 16.8 11 Sur 16 Sur 0 -- -- 88
2019-06-19 08:00:00 16 9 Sudoeste 13 Sudoeste 0 -- -- 90
2019-06-19 07:00:00 15.8 9 Sur 14 Sudoeste 0 -- -- 88
2019-06-19 06:00:00 16 9 Sudoeste 17 Sudoeste 0 -- -- 88
2019-06-19 05:00:00 16.3 13 Oeste -- -- -- -- -- 85
2019-06-19 04:00:00 16.1 12 Oeste 24 Oeste 0 -- -- 86
2019-06-19 03:00:00 16 9 Oeste 14 Sudoeste 0 -- -- 83
2019-06-19 02:00:00 16.5 9 Oeste 16 Oeste 0 -- -- 76
2019-06-19 01:00:00 18 -- -- -- -- -- -- -- --
2019-06-19 00:00:00 19.2 14 Oeste 28 Oeste 0 -- -- 62
2019-06-18 23:00:00 20.8 15 Noroeste 31 Oeste 0 -- -- 53
2019-06-18 22:00:00 22.1 17 Sudoeste 34 Oeste 0 -- -- 58
2019-06-18 21:00:00 23.3 22 Sudoeste 37 Sudoeste 0 -- -- 55
2019-06-18 20:00:00 24.4 22 Sudoeste 43 Oeste 0 -- -- 52
2019-06-18 19:00:00 24.9 25 Sudoeste 46 Sudoeste 0 -- -- 51
2019-06-18 18:00:00 25.3 30 Oeste 49 Oeste 0 -- -- 48
2019-06-18 17:00:00 25.7 29 Sudoeste 44 Oeste 0 -- -- 45
2019-06-18 16:00:00 26.6 22 Sudoeste 46 Oeste 0 -- -- 43
2019-06-18 15:00:00 24.1 22 Sudoeste 41 Oeste 0 -- -- 52
2019-06-18 14:00:00 24 23 Sudoeste 39 Sudoeste 0 -- -- 54
2019-06-18 13:00:00 22.9 18 Sudoeste 36 Sudoeste 0 -- -- 55
2019-06-18 12:00:00 21.6 18 Sudoeste 32 Sudoeste 0 -- -- 57
2019-06-18 11:00:00 19.6 16 Sudoeste 26 Sudoeste 0 -- -- 63
2019-06-18 10:00:00 17.6 16 Sudoeste 24 Sudoeste 0 -- -- 60
2019-06-18 09:00:00 15.8 7 Sudoeste 15 Oeste 0 -- -- 68
2019-06-18 08:00:00 13.1 0 Calma 7 Noroeste 0 -- -- 73
2019-06-18 07:00:00 9.4 6 Noroeste 9 Noroeste 0 -- -- 76
2019-06-18 06:00:00 10.5 2 Norte 15 Oeste 0 -- -- 64
2019-06-18 05:00:00 13.6 13 Oeste 19 Sudoeste 0 -- -- 59
2019-06-18 04:00:00 15.9 12 Sudoeste 19 Sudoeste 0 -- -- 41
2019-06-18 03:00:00 14.9 2 Sudoeste 11 Oeste 0 -- -- 52
2019-06-18 02:00:00 17.2 0 Calma 15 Noroeste 0 -- -- 53
2019-06-18 01:00:00 19.9 11 Noroeste 23 Oeste 0 -- -- 48
2019-06-18 00:00:00 22 14 Oeste 22 Oeste 0 -- -- 43
2019-06-17 23:00:00 24.7 18 Sudoeste 26 Sudoeste 0 -- -- 26
2019-06-17 22:00:00 25.6 14 Sudoeste 29 Sudoeste 0 -- -- 20
2019-06-17 21:00:00 27 14 Sudoeste 31 Sudoeste 0 -- -- 20
2019-06-17 20:00:00 28.9 20 Oeste 35 Oeste 0 -- -- 19
2019-06-17 19:00:00 30.4 12 Oeste 34 Sudoeste 0 -- -- 18
2019-06-17 18:00:00 30.3 17 Sur 31 Sudoeste 0 -- -- 17
2019-06-17 17:00:00 30.9 17 Sudoeste 36 Sudoeste 0 -- -- 17
2019-06-17 16:00:00 30.6 17 Sur 35 Sudoeste 0 -- -- 17
2019-06-17 15:00:00 29.4 14 Sudoeste 31 Oeste 0 -- -- 21
2019-06-17 14:00:00 27.9 14 Sudoeste 28 Sur 0 -- -- 21
2019-06-17 13:00:00 26.3 15 Sur 25 Sur 0 -- -- 22
2019-06-17 12:00:00 24.5 15 Sur 27 Sur 0 -- -- 35
2019-06-17 11:00:00 23.2 11 Sudeste 19 Sudeste 0 -- -- 45
2019-06-17 10:00:00 20.8 6 Sur 13 Sudeste 0 -- -- 50
2019-06-17 09:00:00 17.7 9 Sudeste 12 Sudeste 0 -- -- 64
2019-06-17 08:00:00 13.1 5 Sudeste 9 Sudeste 0 -- -- 80
2019-06-17 07:00:00 9.7 5 Sudeste 5 Sudeste 0 -- -- 82
2019-06-17 06:00:00 10.3 4 Sudeste 6 Sudeste 0 -- -- 79
2019-06-17 05:00:00 11.2 0 Calma 4 Sudoeste 0 -- -- 76
2019-06-17 04:00:00 12.6 2 Sudoeste 5 Sudeste 0 -- -- 76
2019-06-17 03:00:00 14.6 0 Calma 7 Oeste 0 -- -- 68
2019-06-17 02:00:00 17 5 Noroeste 13 Noroeste 0 -- -- 63
2019-06-17 01:00:00 18.4 10 Noroeste 16 Oeste 0 -- -- 54
2019-06-17 00:00:00 20.1 10 Noroeste 13 Noroeste 0 -- -- 38
2019-06-16 23:00:00 21.3 8 Noroeste 14 Noroeste 0 -- -- 36
2019-06-16 22:00:00 24.6 8 Oeste 14 Oeste 0 -- -- 29
2019-06-16 21:00:00 28.3 9 Oeste 20 Sudoeste 0 -- -- 23
2019-06-16 20:00:00 29.3 12 Oeste 26 Oeste 0 -- -- 20
2019-06-16 19:00:00 29.1 15 Oeste 27 Oeste 0 -- -- 22
2019-06-16 18:00:00 28.5 15 Oeste 28 Sudoeste 0 -- -- 22
2019-06-16 17:00:00 28.3 9 Sudoeste 22 Sudoeste 0 -- -- 23
2019-06-16 16:00:00 27.4 15 Sur 30 Sudoeste 0 -- -- 24
2019-06-16 15:00:00 29 9 Sur 26 Sur 0 -- -- 23
2019-06-16 14:00:00 28.6 9 Sudeste 19 Sur 0 -- -- 25
2019-06-16 13:00:00 27.1 11 Sudoeste 23 Sur 0 -- -- 26
2019-06-16 12:00:00 26.4 8 Sudeste 18 Sudeste 0 -- -- 29
2019-06-16 11:00:00 23.1 4 Norte 8 Noroeste 0 -- -- 38
2019-06-16 10:00:00 20 5 Norte 12 Norte 0 -- -- 47
2019-06-16 09:00:00 17.9 6 Norte 9 Norte 0 -- -- 55
2019-06-16 08:00:00 14.1 0 Calma 6 Oeste 0 -- -- 68
2019-06-16 07:00:00 11.8 6 Oeste 10 Oeste 0 -- -- 72
2019-06-16 06:00:00 12 5 Noroeste 9 Oeste 0 -- -- 72
2019-06-16 05:00:00 13.4 7 Noroeste 12 Noroeste 0 -- -- 68
2019-06-16 04:00:00 14.9 8 Noroeste 12 Noroeste 0 -- -- 63
2019-06-16 03:00:00 15.9 5 Noroeste 12 Noroeste 0 -- -- 60
2019-06-16 02:00:00 15.9 6 Noroeste 14 Oeste 0 -- -- 59
2019-06-16 01:00:00 17.5 9 Noroeste 15 Noroeste 0 -- -- 54
2019-06-16 00:00:00 17.7 9 Oeste 12 Oeste 0 -- -- 42
2019-06-15 23:00:00 20 3 Noroeste 21 Sudoeste 0 -- -- 36
2019-06-15 22:00:00 21.9 14 Sudoeste 19 Sudoeste 0 -- -- 33
2019-06-15 21:00:00 25.8 4 Noroeste 16 Noroeste 0 -- -- 24
2019-06-15 20:00:00 26.6 4 Noroeste 16 Norte 0 -- -- 23
2019-06-15 19:00:00 26.1 8 Nordeste 30 Este 0 -- -- 24
2019-06-15 18:00:00 26.7 6 Norte 19 Norte 0 -- -- 24
2019-06-15 17:00:00 25.8 9 Noroeste 35 Norte 0 -- -- 26
2019-06-15 16:00:00 25 10 Sudeste 19 Sudoeste 0 -- -- 28
2019-06-15 15:00:00 24.4 6 Noroeste 22 Oeste 0 -- -- 29
2019-06-15 14:00:00 23 7 Oeste 20 Oeste 0 -- -- 32
2019-06-15 13:00:00 21.5 8 Noroeste 18 Oeste 0 -- -- 35
2019-06-15 12:00:00 20.1 7 Oeste 15 Oeste 0 -- -- 41
2019-06-15 11:00:00 18.2 8 Este 15 Este 0 -- -- 47
2019-06-15 10:00:00 16.1 5 Nordeste 14 Norte 0 -- -- 56
2019-06-15 09:00:00 14.4 5 Norte 11 Norte 0 -- -- 64
2019-06-15 08:00:00 10.9 3 Noroeste 4 Noroeste 0 -- -- 79
2019-06-15 07:00:00 7.5 2 Noroeste 6 Oeste 0 -- -- 89
2019-06-15 06:00:00 9.5 3 Oeste 15 Noroeste 0 -- -- 82
2019-06-15 05:00:00 9.4 6 Oeste 15 Oeste 0 -- -- 81
2019-06-15 04:00:00 10.3 13 Oeste 15 Oeste 0 -- -- 78
2019-06-15 03:00:00 10.8 9 Noroeste 13 Noroeste 0 -- -- 73
2019-06-15 02:00:00 11.5 8 Oeste 12 Oeste 0 -- -- 68
2019-06-15 01:00:00 13 10 Noroeste 14 Noroeste 0 -- -- 63
2019-06-15 00:00:00 13 7 Noroeste 12 Noroeste 0 -- -- 61
2019-06-14 23:00:00 14.2 5 Noroeste 21 Noroeste 0 -- -- 58
2019-06-14 22:00:00 16.7 15 Oeste 28 Oeste 0 -- -- 51
2019-06-14 21:00:00 18.4 17 Noroeste 33 Oeste 0 -- -- 46
2019-06-14 20:00:00 19 19 Noroeste 36 Oeste 0 -- -- 43
2019-06-14 19:00:00 20 23 Oeste 42 Oeste 0 -- -- 39
2019-06-14 18:00:00 20 24 Oeste 47 Oeste 0 -- -- 38
2019-06-14 17:00:00 20.6 26 Oeste 47 Oeste 0 -- -- 36
2019-06-14 16:00:00 20.1 27 Oeste 45 Oeste 0 -- -- 38
2019-06-14 15:00:00 21.1 26 Oeste 43 Oeste 0 -- -- 35
2019-06-14 14:00:00 20.2 27 Oeste 51 Oeste 0 -- -- 38
2019-06-14 13:00:00 19.6 20 Oeste 43 Oeste 0 -- -- 40
2019-06-14 12:00:00 17.8 18 Sudoeste 29 Sudoeste 0 -- -- 46
2019-06-14 11:00:00 15.9 14 Sudoeste 24 Sudoeste 0 -- -- 57
2019-06-14 10:00:00 12.8 14 Sudoeste 25 Sur 0 -- -- 71
2019-06-14 09:00:00 10.3 10 Sudoeste 26 Sudoeste 0 -- -- 86
2019-06-14 08:00:00 8.8 13 Sudoeste 23 Sudoeste 0 -- -- 93
2019-06-14 07:00:00 8.1 6 Oeste 20 Oeste 0 -- -- 94
2019-06-14 06:00:00 8.9 12 Oeste 19 Oeste 0 -- -- 88
2019-06-14 05:00:00 9.4 15 Oeste 22 Oeste 0 -- -- 83
2019-06-14 04:00:00 9.3 8 Oeste 14 Sudoeste 0 -- -- 79
2019-06-14 03:00:00 9.5 3 Sur 6 Noroeste 0 -- -- 68
2019-06-14 02:00:00 12.3 4 Noroeste 12 Noroeste 0 -- -- 61
2019-06-14 01:00:00 14.2 9 Noroeste 22 Noroeste 0 -- -- 57
2019-06-14 00:00:00 15.9 15 Noroeste 30 Noroeste 0 -- -- 51
2019-06-13 23:00:00 17.8 16 Noroeste 28 Oeste 0 -- -- 45
2019-06-13 22:00:00 20.6 18 Oeste 33 Oeste 0 -- -- 33
2019-06-13 21:00:00 24 22 Oeste 33 Oeste 0 -- -- 24
2019-06-13 20:00:00 24.7 20 Oeste 29 Oeste 0 -- -- 22
2019-06-13 19:00:00 24.8 15 Oeste 39 Oeste 0 -- -- 22
2019-06-13 18:00:00 25.9 16 Oeste 32 Oeste 0 -- -- 21
2019-06-13 17:00:00 25.4 16 Oeste 31 Sudoeste 0 -- -- 24
2019-06-13 16:00:00 24.7 6 Sudoeste 30 Sudoeste 0 -- -- 26
2019-06-13 15:00:00 23.4 13 Sudoeste 25 Sudoeste 0 -- -- 29
2019-06-13 14:00:00 22.1 11 Sudoeste 24 Oeste 0 -- -- 32
2019-06-13 13:00:00 20.5 9 Oeste 25 Sudoeste 0 -- -- 38
2019-06-13 12:00:00 17.9 10 Sudoeste 19 Sudoeste 0 -- -- 46
2019-06-13 11:00:00 15.7 9 Sudoeste 18 Sur 0 -- -- 56
2019-06-13 10:00:00 13.5 6 Sudoeste 12 Sudoeste 0 -- -- 61
2019-06-13 09:00:00 10.8 5 Sur 10 Sudoeste 0 -- -- 77
2019-06-13 08:00:00 7.4 5 Sudeste 8 Sudeste 0 -- -- 88
2019-06-13 07:00:00 4.6 4 Sudeste 6 Sudeste 0 -- -- 91
2019-06-13 06:00:00 5.7 0 Calma 6 Noroeste 0 -- -- 89
2019-06-13 05:00:00 7.2 0 Calma 15 Oeste 0 -- -- 76
2019-06-13 04:00:00 8.8 12 Oeste 18 Oeste 0 -- -- 73
2019-06-13 03:00:00 9.9 3 Sur 13 Oeste 0 -- -- 63
2019-06-13 02:00:00 11.9 8 Noroeste 14 Oeste 0 -- -- 55
2019-06-13 01:00:00 14.5 8 Noroeste 18 Oeste 0 -- -- 47
2019-06-13 00:00:00 16.6 13 Noroeste 29 Noroeste 0 -- -- 45
2019-06-12 23:00:00 18.9 18 Noroeste 33 Noroeste 0 -- -- 40
2019-06-12 22:00:00 21 12 Noroeste 27 Oeste 0 -- -- 22
2019-06-12 21:00:00 24.4 20 Noroeste 29 Noroeste 0 -- -- 16
2019-06-12 20:00:00 26.5 15 Oeste 30 Oeste 0 -- -- 14
2019-06-12 19:00:00 27.8 15 Oeste 37 Oeste 0 -- -- 12
2019-06-12 18:00:00 27.5 19 Oeste 35 Oeste 0 -- -- 11
2019-06-12 17:00:00 27.5 19 Sudoeste 31 Oeste 0 -- -- 13
2019-06-12 16:00:00 26.6 15 Sudoeste 29 Oeste 0 -- -- 14
2019-06-12 15:00:00 26.2 16 Sudoeste 30 Sudoeste 0 -- -- 16
2019-06-12 14:00:00 25.7 11 Sudoeste 26 Oeste 0 -- -- 17
2019-06-12 13:00:00 24.6 12 Noroeste 27 Sudoeste 0 -- -- 21
2019-06-12 12:00:00 23.8 7 Norte 16 Sudoeste 0 -- -- 22
2019-06-12 11:00:00 21.7 5 Sudoeste 12 Nordeste 0 -- -- 27
2019-06-12 10:00:00 18.3 9 Norte 14 Norte 0 -- -- 35
2019-06-12 09:00:00 15.7 7 Norte 13 Norte 0 -- -- 41
2019-06-12 08:00:00 13 9 Oeste 13 Oeste 0 -- -- 48
2019-06-12 07:00:00 11.1 5 Noroeste 17 Norte 0 -- -- 51
2019-06-12 06:00:00 13 12 Norte 19 Norte 0 -- -- 46
2019-06-12 05:00:00 13.6 15 Norte 21 Norte 0 -- -- 45
2019-06-12 04:00:00 14.4 12 Norte 19 Norte 0 -- -- 38
2019-06-12 03:00:00 15.5 13 Norte 22 Norte 0 -- -- 29
2019-06-12 02:00:00 15.4 8 Norte 16 Nordeste 0 -- -- 28
2019-06-12 01:00:00 17.4 12 Nordeste 21 Nordeste 0 -- -- 25
2019-06-12 00:00:00 16.7 8 Nordeste 12 Nordeste 0 -- -- 26
2019-06-11 23:00:00 18.1 8 Nordeste 17 Nordeste 0 -- -- 24
2019-06-11 22:00:00 20.2 10 Nordeste 31 Nordeste 0 -- -- 22
2019-06-11 21:00:00 22.2 19 Nordeste 36 Nordeste 0 -- -- 19
2019-06-11 20:00:00 23.4 22 Nordeste 38 Nordeste 0 -- -- 17
2019-06-11 19:00:00 24 22 Norte 39 Nordeste 0 -- -- 19
2019-06-11 18:00:00 24.2 22 Norte 42 Nordeste 0 -- -- 22
2019-06-11 17:00:00 24.3 23 Norte 46 Norte 0 -- -- 25
2019-06-11 16:00:00 24.4 19 Norte 48 Norte 0 -- -- 26
2019-06-11 15:00:00 23.6 24 Norte 44 Norte 0 -- -- 23
2019-06-11 14:00:00 23 27 Norte 49 Norte 0 -- -- 31
2019-06-11 13:00:00 22.1 19 Norte 37 Norte 0 -- -- 34
2019-06-11 12:00:00 20.9 24 Norte 41 Noroeste 0 -- -- 40
2019-06-11 11:00:00 19.3 22 Norte 35 Noroeste 0 -- -- 46
2019-06-11 10:00:00 17.6 20 Norte 34 Noroeste 0 -- -- 51
2019-06-11 09:00:00 15.4 23 Norte 33 Norte 0 -- -- 56
2019-06-11 08:00:00 13.6 16 Norte 26 Noroeste 0 -- -- 59
2019-06-11 07:00:00 12.4 13 Noroeste 22 Noroeste 0 -- -- 60
2019-06-11 06:00:00 11.7 14 Noroeste 19 Noroeste 0 -- -- 59
2019-06-11 05:00:00 11.7 9 Noroeste 14 Noroeste 0 -- -- 59
2019-06-11 04:00:00 12.7 10 Noroeste 18 Noroeste 0 -- -- 57
2019-06-11 03:00:00 13.5 14 Noroeste 21 Noroeste 0 -- -- 54
2019-06-11 02:00:00 14 10 Noroeste 18 Noroeste 0 -- -- 52
2019-06-11 01:00:00 15.6 10 Noroeste 27 Noroeste 0 -- -- 47
2019-06-11 00:00:00 17.3 18 Noroeste 37 Noroeste 0 -- -- 40
2019-06-10 23:00:00 19 23 Noroeste 39 Noroeste 0 -- -- 36
2019-06-10 22:00:00 21.4 19 Noroeste 33 Oeste 0 -- -- 32
2019-06-10 21:00:00 24.7 23 Noroeste 36 Oeste 0 -- -- 27
2019-06-10 20:00:00 26.5 20 Noroeste 31 Oeste 0 -- -- 22
2019-06-10 19:00:00 27.5 16 Noroeste 32 Oeste 0 -- -- 20
2019-06-10 18:00:00 27.7 18 Oeste 33 Oeste 0 -- -- 21
2019-06-10 17:00:00 27.6 10 Noroeste 30 Noroeste 0 -- -- 20
2019-06-10 16:00:00 26.4 12 Noroeste 32 Norte 0 -- -- 23
2019-06-10 15:00:00 26.1 14 Noroeste 31 Noroeste 0 -- -- 24
2019-06-10 14:00:00 24.5 17 Norte 31 Oeste 0 -- -- 28
2019-06-10 13:00:00 23.2 19 Norte 28 Noroeste 0 -- -- 33
2019-06-10 12:00:00 22 13 Noroeste 26 Noroeste 0 -- -- 38
2019-06-10 11:00:00 20 12 Norte 23 Norte 0 -- -- 46
2019-06-10 10:00:00 17.6 14 Norte 23 Norte 0 -- -- 53
2019-06-10 09:00:00 15.1 13 Norte 22 Norte 0 -- -- 63
2019-06-10 08:00:00 13.6 12 Norte 20 Norte 0 -- -- 68
2019-06-10 07:00:00 12.2 10 Norte 22 Noroeste 0 -- -- 72
2019-06-10 06:00:00 12.6 10 Norte 19 Norte 0 -- -- 72
2019-06-10 05:00:00 10.9 8 Oeste 10 Oeste 0 -- -- 79
2019-06-10 04:00:00 12.8 6 Noroeste 18 Noroeste 0 -- -- 72
2019-06-10 03:00:00 13.6 13 Noroeste 19 Noroeste 0 -- -- 70
2019-06-10 02:00:00 14.3 13 Noroeste 22 Noroeste 0 -- -- 65
2019-06-10 01:00:00 15.6 12 Noroeste 22 Noroeste 0 -- -- 58
2019-06-10 00:00:00 16.9 13 Noroeste 26 Noroeste 0 -- -- 53
2019-06-09 23:00:00 18.3 18 Noroeste 33 Noroeste 0 -- -- 48
2019-06-09 22:00:00 20 23 Noroeste 34 Noroeste 0 -- -- 43
2019-06-09 21:00:00 22.5 23 Noroeste 36 Noroeste 0 -- -- 36
2019-06-09 20:00:00 24.3 24 Oeste 39 Noroeste 0 -- -- 32
2019-06-09 19:00:00 25.8 23 Noroeste 40 Oeste 0 -- -- 30
2019-06-09 18:00:00 26.5 18 Noroeste 33 Oeste 0 -- -- 27
2019-06-09 17:00:00 26.5 9 Oeste 37 Oeste 0 -- -- 26
2019-06-09 16:00:00 26.4 16 Noroeste 48 Oeste 0 -- -- 25
2019-06-09 15:00:00 25.1 17 Oeste 33 Oeste 0 -- -- 31
2019-06-09 14:00:00 24 11 Oeste 29 Oeste 0 -- -- 33
2019-06-09 13:00:00 21.9 12 Oeste 23 Oeste 0 -- -- 38
2019-06-09 12:00:00 19.5 9 Oeste 22 Oeste 0 -- -- 44
2019-06-09 11:00:00 17.4 9 Oeste 17 Noroeste 0 -- -- 49
2019-06-09 10:00:00 14.5 10 Oeste 15 Oeste 0 -- -- 58
2019-06-09 09:00:00 11.5 9 Oeste 14 Oeste 0 -- -- 68
2019-06-09 08:00:00 8.8 2 Sudoeste 10 Sudoeste 0 -- -- 80
2019-06-09 07:00:00 7.5 0 Calma 22 Oeste 0 -- -- 80
2019-06-09 06:00:00 9 12 Oeste 21 Oeste 0 -- -- 75
2019-06-09 05:00:00 9.1 5 Noroeste 13 Oeste 0 -- -- 72
2019-06-09 04:00:00 9.8 3 Noroeste 8 Noroeste 0 -- -- 67
2019-06-09 03:00:00 12.2 5 Oeste 12 Noroeste 0 -- -- 57
2019-06-09 02:00:00 14.2 11 Oeste 25 Noroeste 0 -- -- 53
2019-06-09 01:00:00 16.1 18 Noroeste 27 Noroeste 0 -- -- 46
2019-06-09 00:00:00 17.7 10 Noroeste 21 Noroeste 0 -- -- 48
2019-06-08 23:00:00 19.5 14 Noroeste 33 Noroeste 0 -- -- 44
2019-06-08 22:00:00 22.2 12 Noroeste 30 Noroeste 0 -- -- 31
2019-06-08 21:00:00 25 11 Noroeste 25 Noroeste 0 -- -- 21
2019-06-08 20:00:00 26.2 15 Noroeste 24 Noroeste 0 -- -- 20
2019-06-08 19:00:00 27.6 6 Sudoeste 31 Sudoeste 0 -- -- 18
2019-06-08 18:00:00 27.5 13 Sudoeste 27 Oeste 0 -- -- 18
2019-06-08 17:00:00 27.8 14 Sudoeste 29 Oeste 0 -- -- 18
2019-06-08 16:00:00 27.4 10 Oeste 24 Oeste 0 -- -- 17
2019-06-08 15:00:00 26.7 15 Oeste 24 Noroeste 0 -- -- 19
2019-06-08 14:00:00 25.5 11 Noroeste 23 Oeste 0 -- -- 23
2019-06-08 13:00:00 24.2 10 Oeste 24 Noroeste 0 -- -- 24
2019-06-08 12:00:00 23 6 Este 19 Norte 0 -- -- 29
2019-06-08 11:00:00 20.5 11 Norte 20 Nordeste 0 -- -- 35
2019-06-08 10:00:00 17.6 13 Norte 18 Norte 0 -- -- 44
2019-06-08 09:00:00 14.8 11 Norte 22 Norte 0 -- -- 52
2019-06-08 08:00:00 12.7 14 Norte 28 Norte 0 -- -- 58
2019-06-08 07:00:00 11.6 12 Norte 22 Norte 0 -- -- 61
2019-06-08 06:00:00 12.1 15 Norte 21 Norte 0 -- -- 59
2019-06-08 05:00:00 12.1 12 Norte 21 Norte 0 -- -- 59
2019-06-08 04:00:00 13.1 13 Norte 20 Norte 0 -- -- 56
2019-06-08 03:00:00 13.1 13 Norte 20 Norte 0 -- -- 58
2019-06-08 02:00:00 14.2 14 Norte 23 Norte 0 -- -- 53
2019-06-08 01:00:00 15.1 13 Norte 19 Noroeste 0 -- -- 47
2019-06-08 00:00:00 16.4 10 Norte 16 Norte 0 -- -- 40
2019-06-07 23:00:00 17.7 12 Norte 17 Norte 0 -- -- 36
2019-06-07 22:00:00 18.6 9 Noroeste 15 Norte 0 -- -- 32
2019-06-07 21:00:00 21.4 9 Norte 17 Norte 0 -- -- 28
2019-06-07 20:00:00 22.3 12 Norte 21 Noroeste 0 -- -- 26
2019-06-07 19:00:00 22.7 11 Norte 25 Noroeste 0 -- -- 26
2019-06-07 18:00:00 22.6 12 Noroeste 34 Noroeste 0 -- -- 26
2019-06-07 17:00:00 22.2 12 Norte 32 Noroeste 0 -- -- 29
2019-06-07 16:00:00 21.5 12 Norte 27 Noroeste 0 -- -- 29
2019-06-07 15:00:00 21.1 9 Noroeste 24 Oeste 0 -- -- 32
2019-06-07 14:00:00 19.7 14 Noroeste 31 Norte 0 -- -- 33
2019-06-07 13:00:00 18.4 7 Nordeste 26 Norte 0 -- -- 40
2019-06-07 12:00:00 17.6 8 Norte 25 Norte 0 -- -- 44
2019-06-07 11:00:00 15.8 8 Norte 24 Norte 0 -- -- 54
2019-06-07 10:00:00 13.9 13 Noroeste 23 Noroeste 0 -- -- 66
2019-06-07 09:00:00 11.9 15 Noroeste 25 Oeste 0 -- -- 81
2019-06-07 08:00:00 9.8 8 Noroeste 12 Oeste 0 -- -- 93
2019-06-07 07:00:00 8 7 Oeste 13 Oeste 0 -- -- 97
2019-06-07 06:00:00 8.2 10 Oeste 15 Noroeste 0 -- -- 95
2019-06-07 05:00:00 8.9 7 Noroeste 15 Oeste 0 -- -- 91
2019-06-07 04:00:00 9.4 12 Oeste 19 Noroeste 0 -- -- 89
2019-06-07 03:00:00 10.9 14 Noroeste 26 Noroeste 0 -- -- 83
2019-06-07 02:00:00 11.8 14 Noroeste 26 Noroeste 0 -- -- 83
2019-06-07 01:00:00 11.5 9 Noroeste 32 Noroeste 0.2 -- -- 90
2019-06-07 00:00:00 13.2 23 Noroeste 55 Sudoeste 0.2 -- -- 91
2019-06-06 23:00:00 15.8 15 Oeste 42 Oeste 0 -- -- 74
2019-06-06 22:00:00 17.3 25 Oeste 52 Sudoeste 0 -- -- 65
2019-06-06 21:00:00 19.1 27 Oeste 49 Sudoeste 0 -- -- 52
2019-06-06 20:00:00 21.3 31 Sudoeste 50 Sudoeste 0 -- -- 42
2019-06-06 19:00:00 22.1 27 Sudoeste 49 Oeste 0 -- -- 40
2019-06-06 18:00:00 22.8 24 Sudoeste 44 Sudoeste 0 -- -- 37
2019-06-06 17:00:00 22.7 26 Sudoeste 44 Sudoeste 0 -- -- 35
2019-06-06 16:00:00 22.3 19 Sudoeste 39 Sudoeste 0 -- -- 35
2019-06-06 15:00:00 21.1 21 Sudoeste 36 Oeste 0 -- -- 35
2019-06-06 14:00:00 20.6 19 Sudoeste 36 Sudoeste 0 -- -- 37
2019-06-06 13:00:00 19.3 14 Sudoeste 28 Sudoeste 0 -- -- 41
2019-06-06 12:00:00 17.7 9 Oeste 22 Oeste 0 -- -- 45
2019-06-06 11:00:00 15.7 8 Noroeste 20 Oeste 0 -- -- 51
2019-06-06 10:00:00 13 9 Oeste 17 Oeste 0 -- -- 78
2019-06-06 09:00:00 12 6 Oeste 12 Oeste 0 -- -- 68
2019-06-06 08:00:00 8.8 0 Calma 9 Noroeste 0 -- -- 83
2019-06-06 07:00:00 7.1 0 Calma 14 Oeste 0 -- -- 83
2019-06-06 06:00:00 8.5 11 Noroeste 15 Noroeste 0 -- -- 78
2019-06-06 05:00:00 8.4 12 Oeste 15 Noroeste 0 -- -- 76
2019-06-06 04:00:00 9.8 10 Noroeste 19 Noroeste 0 -- -- 70
2019-06-06 03:00:00 10.8 13 Noroeste 21 Noroeste 0 -- -- 65
2019-06-06 02:00:00 11.7 14 Noroeste 20 Noroeste 0 -- -- 61
2019-06-06 01:00:00 12.7 11 Noroeste 23 Noroeste 0 -- -- 55
2019-06-06 00:00:00 14 17 Noroeste 26 Noroeste 0 -- -- 48
2019-06-05 23:00:00 14.9 12 Noroeste 26 Noroeste 0 -- -- 43
2019-06-05 22:00:00 16.7 13 Noroeste 26 Oeste 0 -- -- 40
2019-06-05 21:00:00 19.2 17 Noroeste 28 Oeste 0 -- -- 34
2019-06-05 20:00:00 20.5 22 Oeste 38 Oeste 0 -- -- 32
2019-06-05 19:00:00 21.9 23 Oeste 36 Oeste 0 -- -- 30
2019-06-05 18:00:00 20.9 16 Noroeste 35 Oeste 0 -- -- 32
2019-06-05 17:00:00 22.2 16 Noroeste 35 Noroeste 0 -- -- 30
2019-06-05 16:00:00 20.8 17 Noroeste 33 Oeste 0 -- -- 32
2019-06-05 15:00:00 20.7 19 Noroeste 35 Oeste 0 -- -- 33
2019-06-05 14:00:00 19.5 17 Oeste 39 Oeste 0 -- -- 38
2019-06-05 13:00:00 18.8 19 Noroeste 38 Norte 0 -- -- 41
2019-06-05 12:00:00 17.4 15 Noroeste 35 Noroeste 0 -- -- 44
2019-06-05 11:00:00 16.6 14 Noroeste 31 Noroeste 0 -- -- 48
2019-06-05 10:00:00 15 15 Noroeste 29 Noroeste 0 -- -- 57
2019-06-05 09:00:00 12.8 15 Noroeste 27 Noroeste 0 -- -- 70
2019-06-05 08:00:00 10.9 17 Noroeste 28 Noroeste 0 -- -- 80
2019-06-05 07:00:00 10.3 18 Noroeste 28 Noroeste 0 -- -- 82
2019-06-05 06:00:00 10.2 15 Noroeste 22 Noroeste 0 -- -- 81
2019-06-05 05:00:00 10.8 16 Noroeste 32 Noroeste 0 -- -- 77
2019-06-05 04:00:00 10.8 13 Noroeste 22 Oeste 0 -- -- 77
2019-06-05 03:00:00 11.7 17 Noroeste 26 Noroeste 0 -- -- 72
2019-06-05 02:00:00 12.3 14 Oeste 24 Oeste 0 -- -- 67
2019-06-05 01:00:00 13 16 Oeste 29 Noroeste 0 -- -- 65
2019-06-05 00:00:00 14.2 15 Noroeste 35 Noroeste 0 -- -- 57
2019-06-04 23:00:00 15.8 22 Noroeste 39 Noroeste 0 -- -- 55
2019-06-04 22:00:00 17.5 22 Noroeste 33 Oeste 0 -- -- 53
2019-06-04 21:00:00 18.7 22 Noroeste 42 Oeste 0 -- -- 57
2019-06-04 20:00:00 20.9 27 Noroeste 41 Noroeste 0 -- -- 43
2019-06-04 19:00:00 21.5 30 Noroeste 44 Oeste 0 -- -- 57
2019-06-04 18:00:00 24.3 32 Oeste 45 Oeste 0 -- -- 47
2019-06-04 17:00:00 25.4 25 Oeste 38 Oeste 0 -- -- 40
2019-06-04 16:00:00 25.5 22 Oeste 37 Oeste 0 -- -- 41
2019-06-04 15:00:00 24.9 16 Oeste 36 Oeste 0 -- -- 44
2019-06-04 14:00:00 24.2 16 Oeste 29 Oeste 0 -- -- 47
2019-06-04 13:00:00 22.2 18 Oeste 28 Oeste 0 -- -- 53
2019-06-04 12:00:00 20.9 18 Oeste 31 Oeste 0 -- -- 57
2019-06-04 11:00:00 20 10 Oeste 21 Noroeste 0 -- -- 58
2019-06-04 10:00:00 17.6 15 Oeste 22 Noroeste 0 -- -- 70
2019-06-04 09:00:00 16.3 11 Oeste 18 Oeste 0 -- -- 79
2019-06-04 08:00:00 14.3 0 Calma 8 Noroeste 0 -- -- 91
2019-06-04 07:00:00 13.3 6 Oeste 10 Oeste 0 -- -- 95
2019-06-04 06:00:00 14 9 Oeste 12 Oeste 0 -- -- 94
2019-06-04 05:00:00 14.7 8 Oeste 14 Oeste 0 -- -- 89
2019-06-04 04:00:00 15.4 5 Noroeste 10 Noroeste 0 -- -- 82
2019-06-04 03:00:00 16.4 4 Noroeste 12 Noroeste 0 -- -- 77
2019-06-04 02:00:00 18.9 10 Noroeste 19 Noroeste 0 -- -- 68
2019-06-04 01:00:00 20.1 10 Noroeste 21 Noroeste 0 -- -- 67
2019-06-04 00:00:00 22 15 Noroeste 26 Noroeste 0 -- -- 63
2019-06-03 23:00:00 23.4 9 Noroeste 20 Oeste 0 -- -- 51
2019-06-03 22:00:00 25.9 17 Oeste 31 Oeste 0 -- -- 41
2019-06-03 21:00:00 28.5 19 Oeste 34 Oeste 0 -- -- 31
2019-06-03 20:00:00 30.6 20 Oeste 33 Oeste 0 -- -- 26
2019-06-03 19:00:00 32 21 Oeste 42 Oeste 0 -- -- 22
2019-06-03 18:00:00 32.6 23 Oeste 39 Sudoeste 0 -- -- 19
2019-06-03 17:00:00 33.1 21 Oeste 39 Oeste 0 -- -- 17
2019-06-03 16:00:00 33.3 22 Oeste 36 Oeste 0 -- -- 17
2019-06-03 15:00:00 32.7 19 Oeste 32 Oeste 0 -- -- 18
2019-06-03 14:00:00 31.3 13 Sudoeste 28 Oeste 0 -- -- 17
2019-06-03 13:00:00 30.1 15 Sudoeste 27 Oeste 0 -- -- 17
2019-06-03 12:00:00 27.5 18 Sudoeste 26 Sudoeste 0 -- -- 23
2019-06-03 11:00:00 25.5 11 Sudoeste 15 Sudoeste 0 -- -- 32
2019-06-03 10:00:00 24.3 8 Sur 13 Sur 0 -- -- 36
2019-06-03 09:00:00 20.7 7 Este 8 Este 0 -- -- 47
2019-06-03 08:00:00 16.7 0 Calma 7 Oeste 0 -- -- 57
2019-06-03 07:00:00 16.8 2 Noroeste 8 Oeste 0 -- -- 53
2019-06-03 06:00:00 16.3 3 Noroeste 12 Oeste 0 -- -- 56
2019-06-03 05:00:00 17.9 10 Oeste 19 Noroeste 0 -- -- 51
2019-06-03 04:00:00 20.3 13 Noroeste 19 Noroeste 0 -- -- 44
2019-06-03 03:00:00 19.1 4 Noroeste 9 Noroeste 0 -- -- 45
2019-06-03 02:00:00 21.6 9 Oeste 27 Noroeste 0 -- -- 39
2019-06-03 01:00:00 24 17 Noroeste 26 Norte 0 -- -- 35
2019-06-03 00:00:00 25.4 16 Norte 26 Noroeste 0 -- -- 32
2019-06-02 23:00:00 26.6 15 Norte 25 Noroeste 0 -- -- 27
2019-06-02 22:00:00 28.5 19 Noroeste 34 Noroeste 0 -- -- 20
2019-06-02 21:00:00 30.2 21 Noroeste 36 Noroeste 0 -- -- 20
2019-06-02 20:00:00 33.5 19 Noroeste 34 Oeste 0 -- -- 19
2019-06-02 19:00:00 35.5 7 Noroeste 27 Oeste 0 -- -- 17
2019-06-02 18:00:00 35.3 9 Sudoeste 31 Sudoeste 0 -- -- 17
2019-06-02 17:00:00 35.7 18 Sudoeste 30 Sudoeste 0 -- -- 15
2019-06-02 16:00:00 34.8 9 Noroeste 23 Noroeste 0 -- -- 19
2019-06-02 15:00:00 34.2 10 Sudoeste 21 Sudoeste 0 -- -- 20
2019-06-02 14:00:00 33 4 Sur 17 Oeste 0 -- -- 24
2019-06-02 13:00:00 31.2 3 Sur 17 Noroeste 0 -- -- 25
2019-06-02 12:00:00 28.7 5 Oeste 14 Sur 0 -- -- 30
2019-06-02 11:00:00 26.2 8 Sudoeste 16 Sur 0 -- -- 33
2019-06-02 10:00:00 23.5 9 Sudoeste 16 Sudoeste 0 -- -- 38
2019-06-02 09:00:00 21.6 8 Oeste 14 Oeste 0 -- -- 41
2019-06-02 08:00:00 17.2 3 Este 6 Este 0 -- -- 54
2019-06-02 07:00:00 15.8 4 Este 9 Oeste 0 -- -- 55
2019-06-02 06:00:00 16.7 8 Noroeste 10 Oeste 0 -- -- 51
2019-06-02 05:00:00 16.8 0 Calma 3 Oeste 0 -- -- 51
2019-06-02 04:00:00 19.1 0 Calma 9 Noroeste 0 -- -- 44
2019-06-02 03:00:00 22.2 10 Noroeste 12 Noroeste 0 -- -- 37
2019-06-02 02:00:00 23.9 4 Oeste 18 Norte 0 -- -- 33
2019-06-02 01:00:00 24 6 Norte 18 Noroeste 0 -- -- 31
2019-06-02 00:00:00 21.9 0 Calma 4 Sudeste 0 -- -- 30
2019-06-01 23:00:00 24.4 0 Calma 13 Sudoeste 0 -- -- 26
2019-06-01 22:00:00 28.9 10 Sudoeste 14 Sudoeste 0 -- -- 19
2019-06-01 21:00:00 32.4 8 Sudoeste 17 Sudoeste 0 -- -- 17
2019-06-01 20:00:00 34.2 9 Sudoeste 20 Sur 0 -- -- 16
2019-06-01 19:00:00 34.8 4 Nordeste 17 Oeste 0 -- -- 16
2019-06-01 18:00:00 35 4 Sur 24 Sur 0 -- -- 16
2019-06-01 17:00:00 34.9 8 Nordeste 21 Sudeste 0 -- -- 16
2019-06-01 16:00:00 34.3 14 Sudeste 30 Sudeste 0 -- -- 18
2019-06-01 15:00:00 34.5 7 Noroeste 18 Sudeste 0 -- -- 17
2019-06-01 14:00:00 32.9 5 Este 16 Este 0 -- -- 19
2019-06-01 13:00:00 32 6 Este 15 Sudeste 0 -- -- 22
2019-06-01 12:00:00 29.9 4 Este 14 Sudeste 0 -- -- 24
2019-06-01 11:00:00 27.5 7 Sudoeste 20 Oeste 0 -- -- 29
2019-06-01 10:00:00 26 3 Sudoeste 10 Sur 0 -- -- 31
2019-06-01 09:00:00 23.7 3 Sudeste 6 Sur 0 -- -- 34
2019-06-01 08:00:00 20.8 5 Sur 13 Sudeste 0 -- -- 38
2019-06-01 07:00:00 19.5 8 Sur 14 Sudeste 0 -- -- 39
2019-06-01 06:00:00 19.6 9 Este 17 Sudeste 0 -- -- 40
2019-06-01 05:00:00 18.2 9 Sudeste 12 Sudeste 0 -- -- 44
2019-06-01 04:00:00 18.7 8 Sudeste 16 Sudoeste 0 -- -- 42
2019-06-01 03:00:00 20.5 9 Sudoeste 21 Sudeste 0 -- -- 37
2019-06-01 02:00:00 21.1 4 Noroeste 5 Noroeste 0 -- -- 35
2019-06-01 01:00:00 22 4 Noroeste 7 Oeste 0 -- -- 34
2019-06-01 00:00:00 22.3 0 Calma 8 Norte 0 -- -- 34
2019-05-31 23:00:00 23.7 0 Calma 9 Oeste 0 -- -- 32
2019-05-31 22:00:00 27.5 0 Calma 14 Este 0 -- -- 26
2019-05-31 21:00:00 31.9 8 Nordeste 19 Norte 0 -- -- 18
2019-05-31 20:00:00 33.6 8 Nordeste 21 Norte 0 -- -- 17
2019-05-31 19:00:00 34.1 11 Norte 27 Nordeste 0 -- -- 17
2019-05-31 18:00:00 34.4 5 Este 26 Sudeste 0 -- -- 17
2019-05-31 17:00:00 33.8 14 Sudeste 29 Este 0 -- -- 19
2019-05-31 16:00:00 33.7 9 Sudoeste 36 Sudeste 0 -- -- 19
2019-05-31 15:00:00 33 14 Sudeste 30 Sudeste 0 -- -- 20
2019-05-31 14:00:00 32.2 10 Sudeste 23 Sudeste 0 -- -- 22
2019-05-31 13:00:00 30.4 9 Este 18 Sudeste 0 -- -- 26
2019-05-31 12:00:00 29 8 Este 16 Este 0 -- -- 28
2019-05-31 11:00:00 27.1 7 Sur 13 Sur 0 -- -- 32
2019-05-31 10:00:00 24.7 5 Sudeste 11 Sudeste 0 -- -- 39
2019-05-31 09:00:00 21.8 3 Sudeste 6 Sudeste 0 -- -- 44
2019-05-31 08:00:00 16.2 3 Sudeste 5 Norte 0 -- -- 58
2019-05-31 07:00:00 15.6 8 Nordeste 12 Norte 0 -- -- 57
2019-05-31 06:00:00 17.4 9 Sudeste 19 Sur 0 -- -- 50
2019-05-31 05:00:00 19 18 Sudeste 20 Sudeste 0 -- -- 41
2019-05-31 04:00:00 20.7 12 Sudeste 15 Sudeste 0 -- -- 33
2019-05-31 03:00:00 19.6 8 Sudeste 10 Sudeste 0 -- -- 33
2019-05-31 02:00:00 19.7 0 Calma 5 Sudeste 0 -- -- 34
2019-05-31 01:00:00 22.4 3 Sur 11 Nordeste 0 -- -- 29
2019-05-31 00:00:00 20.8 0 Calma 5 Nordeste 0 -- -- 33
2019-05-30 23:00:00 22.7 0 Calma 6 Nordeste 0 -- -- 30
2019-05-30 22:00:00 26.8 7 Este 17 Este 0 -- -- 23
2019-05-30 21:00:00 30.8 8 Nordeste 23 Nordeste 0 -- -- 16
2019-05-30 20:00:00 32.3 13 Este 23 Este 0 -- -- 17
2019-05-30 19:00:00 33 16 Este 28 Este 0 -- -- 17
2019-05-30 18:00:00 33.2 11 Nordeste 37 Este 0 -- -- 17
2019-05-30 17:00:00 33 13 Este 27 Este 0 -- -- 17
2019-05-30 16:00:00 32.7 9 Este 32 Este 0 -- -- 19
2019-05-30 15:00:00 31.2 12 Este 32 Este 0 -- -- 20
2019-05-30 14:00:00 30.2 13 Sudeste 29 Este 0 -- -- 22
2019-05-30 13:00:00 29.5 18 Sudeste 34 Sudeste 0 -- -- 21
2019-05-30 12:00:00 28.1 13 Este 28 Este 0 -- -- 24
2019-05-30 11:00:00 26.7 13 Este 22 Nordeste 0 -- -- 26
2019-05-30 10:00:00 24.8 9 Nordeste 20 Este 0 -- -- 33
2019-05-30 09:00:00 22.5 12 Este 19 Nordeste 0 -- -- 36
2019-05-30 08:00:00 19.8 11 Este 24 Este 0 -- -- 40
2019-05-30 07:00:00 17 6 Este 19 Este 0 -- -- 45
2019-05-30 06:00:00 19.8 15 Sudeste 23 Este 0 -- -- 38
2019-05-30 05:00:00 17.3 3 Este 10 Norte 0 -- -- 41
2019-05-30 04:00:00 17.8 3 Nordeste 9 Este 0 -- -- 40
2019-05-30 03:00:00 21 8 Este 25 Nordeste 0 -- -- 34
2019-05-30 02:00:00 21 12 Nordeste 20 Nordeste 0 -- -- 35
2019-05-30 01:00:00 21 11 Norte 20 Norte 0 -- -- 36
2019-05-30 00:00:00 23.5 15 Nordeste 23 Nordeste 0 -- -- 32
2019-05-29 23:00:00 23.9 11 Nordeste 19 Nordeste 0 -- -- 31
2019-05-29 22:00:00 25.3 10 Nordeste 24 Nordeste 0 -- -- 27
2019-05-29 21:00:00 28.1 12 Nordeste 27 Nordeste 0 -- -- 23
2019-05-29 20:00:00 29.5 19 Nordeste 34 Nordeste 0 -- -- 20
2019-05-29 19:00:00 30.6 18 Nordeste 32 Norte 0 -- -- 19
2019-05-29 18:00:00 31.2 18 Este 32 Este 0 -- -- 20
2019-05-29 17:00:00 31 19 Nordeste 33 Nordeste 0 -- -- 21
2019-05-29 16:00:00 30.3 13 Nordeste 33 Este 0 -- -- 22
2019-05-29 15:00:00 29 7 Nordeste 25 Sudeste 0 -- -- 23
2019-05-29 14:00:00 28 13 Este 51 Sudeste 0 -- -- 24
2019-05-29 13:00:00 26.5 15 Este 29 Este 0 -- -- 26
2019-05-29 12:00:00 24.8 14 Este 26 Este 0 -- -- 29
2019-05-29 11:00:00 23.3 12 Nordeste 24 Este 0 -- -- 31
2019-05-29 10:00:00 21.8 12 Este 24 Este 0 -- -- 32
2019-05-29 09:00:00 19 10 Nordeste 21 Nordeste 0 -- -- 39
2019-05-29 08:00:00 17.2 13 Nordeste 20 Nordeste 0 -- -- 41
2019-05-29 07:00:00 16.7 12 Nordeste 17 Nordeste 0 -- -- 41
2019-05-29 06:00:00 17.4 12 Nordeste 23 Este 0 -- -- 40
2019-05-29 05:00:00 17.4 8 Nordeste 14 Nordeste 0 -- -- 40
2019-05-29 04:00:00 18.4 10 Nordeste 21 Nordeste 0 -- -- 37
2019-05-29 03:00:00 19.4 13 Nordeste 22 Nordeste 0 -- -- 34
2019-05-29 02:00:00 21.2 17 Nordeste 28 Nordeste 0 -- -- 30
2019-05-29 01:00:00 21.7 13 Norte 24 Norte 0 -- -- 29
2019-05-29 00:00:00 22.8 16 Nordeste 29 Nordeste 0 -- -- 28
2019-05-28 23:00:00 23.2 11 Norte 28 Nordeste 0 -- -- 28
2019-05-28 22:00:00 25.1 14 Nordeste 32 Nordeste 0 -- -- 25
2019-05-28 21:00:00 27.4 18 Norte 32 Nordeste 0 -- -- 22
2019-05-28 20:00:00 29.1 19 Nordeste 37 Nordeste 0 -- -- 20
2019-05-28 19:00:00 30.1 14 Nordeste 37 Nordeste 0 -- -- 19
2019-05-28 18:00:00 30.4 18 Norte 37 Nordeste 0 -- -- 17
2019-05-28 17:00:00 30.5 17 Norte 32 Nordeste 0 -- -- 19
2019-05-28 16:00:00 30.7 16 Norte 40 Norte 0 -- -- 23
2019-05-28 15:00:00 30.7 17 Norte 27 Nordeste 0 -- -- 27
2019-05-28 14:00:00 30.1 15 Nordeste 29 Nordeste 0 -- -- 29
2019-05-28 13:00:00 29.3 10 Norte 22 Nordeste 0 -- -- 30
2019-05-28 12:00:00 27.7 10 Este 23 Este 0 -- -- 33
2019-05-28 11:00:00 25.4 12 Nordeste 22 Nordeste 0 -- -- 39
2019-05-28 10:00:00 22.2 15 Norte 23 Nordeste 0 -- -- 46
2019-05-28 09:00:00 19.5 12 Norte 23 Norte 0 -- -- 54
2019-05-28 08:00:00 17.9 12 Norte 20 Noroeste 0 -- -- 57
2019-05-28 07:00:00 16 11 Noroeste 22 Norte 0 -- -- 68
2019-05-28 06:00:00 17.9 15 Norte 22 Norte 0 -- -- 63
2019-05-28 05:00:00 18.7 15 Norte 23 Norte 0 -- -- 62
2019-05-28 04:00:00 19.7 14 Norte 23 Norte 0 -- -- 59
2019-05-28 03:00:00 20.1 14 Norte 23 Noroeste 0 -- -- 61
2019-05-28 02:00:00 20.7 14 Norte 29 Norte 0 -- -- 63
2019-05-28 01:00:00 21.6 12 Noroeste 27 Noroeste 0 -- -- 59
2019-05-28 00:00:00 21.7 14 Noroeste 22 Noroeste 0 -- -- 58
2019-05-27 23:00:00 23.5 15 Noroeste 25 Noroeste 0 -- -- 51
2019-05-27 22:00:00 25.6 18 Noroeste 28 Oeste 0 -- -- 43
2019-05-27 21:00:00 28.7 22 Noroeste 33 Oeste 0 -- -- 30
2019-05-27 20:00:00 30.5 21 Noroeste 36 Noroeste 0 -- -- 29
2019-05-27 19:00:00 31.6 20 Noroeste 38 Oeste 0 -- -- 31
2019-05-27 18:00:00 32.2 15 Noroeste 30 Norte 0 -- -- 25
2019-05-27 17:00:00 32.8 21 Noroeste 38 Noroeste 0 -- -- 26
2019-05-27 16:00:00 32.6 16 Noroeste 36 Noroeste 0 -- -- 26
2019-05-27 15:00:00 31.4 15 Noroeste 34 Noroeste 0 -- -- 27
2019-05-27 14:00:00 30.5 10 Noroeste 28 Noroeste 0 -- -- 27
2019-05-27 13:00:00 29.2 15 Noroeste 27 Noroeste 0 -- -- 28
2019-05-27 12:00:00 28.2 10 Noroeste 22 Noroeste 0 -- -- 33
2019-05-27 11:00:00 26.4 10 Norte 21 Norte 0 -- -- 36
2019-05-27 10:00:00 24.3 11 Norte 19 Norte 0 -- -- 41
2019-05-27 09:00:00 22 10 Norte 16 Norte 0 -- -- 49
2019-05-27 08:00:00 18.8 9 Oeste 13 Oeste 0 -- -- 62
2019-05-27 07:00:00 17.3 8 Noroeste 15 Oeste 0 -- -- 64
2019-05-27 06:00:00 16.2 7 Noroeste 11 Oeste 0 -- -- 66
2019-05-27 05:00:00 17.6 7 Norte 10 Norte 0 -- -- 57
2019-05-27 04:00:00 17.8 8 Oeste 11 Norte 0 -- -- 53
2019-05-27 03:00:00 19.4 8 Norte 14 Norte 0 -- -- 43
2019-05-27 02:00:00 19.8 9 Noroeste 13 Noroeste 0 -- -- 41
2019-05-27 01:00:00 20.8 5 Norte 10 Norte 0 -- -- 38
2019-05-27 00:00:00 21.4 7 Nordeste 14 Nordeste 0 -- -- 37
2019-05-26 23:00:00 22.8 4 Norte 17 Nordeste 0 -- -- 35
2019-05-26 22:00:00 25.9 8 Nordeste 22 Norte 0 -- -- 29
2019-05-26 21:00:00 28.2 12 Norte 30 Norte 0 -- -- 27
2019-05-26 20:00:00 29.4 20 Nordeste 36 Nordeste 0 -- -- 24
2019-05-26 19:00:00 29.8 24 Nordeste 44 Norte 0 -- -- 23
2019-05-26 18:00:00 30.4 21 Nordeste 44 Nordeste 0 -- -- 23
2019-05-26 17:00:00 30.3 18 Nordeste 41 Nordeste 0 -- -- 25
2019-05-26 16:00:00 29.6 16 Norte 32 Nordeste 0 -- -- 27
2019-05-26 15:00:00 28.3 17 Norte 32 Norte 0 -- -- 28
2019-05-26 14:00:00 27.8 12 Nordeste 24 Norte 0 -- -- 30
2019-05-26 13:00:00 26.3 12 Nordeste 21 Nordeste 0 -- -- 29
2019-05-26 12:00:00 25.1 14 Nordeste 24 Este 0 -- -- 30
2019-05-26 11:00:00 23.1 13 Norte 21 Norte 0 -- -- 33
2019-05-26 10:00:00 21.3 12 Norte 21 Norte 0 -- -- 37
2019-05-26 09:00:00 18.7 15 Norte 23 Norte 0 -- -- 42
2019-05-26 08:00:00 16.6 12 Norte 19 Norte 0 -- -- 46
2019-05-26 07:00:00 16.4 15 Norte 19 Norte 0 -- -- 44
2019-05-26 06:00:00 16.5 12 Norte 21 Nordeste 0 -- -- 44
2019-05-26 05:00:00 17.1 13 Norte 24 Nordeste 0 -- -- 42
2019-05-26 04:00:00 18.5 15 Nordeste 23 Nordeste 0 -- -- 38
2019-05-26 03:00:00 17.8 13 Norte 19 Norte 0 -- -- 41
2019-05-26 02:00:00 18.7 10 Norte 19 Nordeste 0 -- -- 39
2019-05-26 01:00:00 19.5 10 Nordeste 18 Nordeste 0 -- -- 36
2019-05-26 00:00:00 20 9 Norte 15 Nordeste 0 -- -- 35
2019-05-25 23:00:00 21.1 9 Nordeste 16 Nordeste 0 -- -- 32
2019-05-25 22:00:00 22.8 5 Norte 21 Nordeste 0 -- -- 29
2019-05-25 21:00:00 25.3 14 Norte 27 Norte 0 -- -- 22
2019-05-25 20:00:00 26.8 9 Nordeste 23 Norte 0 -- -- 27
2019-05-25 19:00:00 27.2 17 Nordeste 27 Norte 0 -- -- 23
2019-05-25 18:00:00 27.4 12 Norte 44 Nordeste 0 -- -- 22
2019-05-25 17:00:00 27.2 7 Norte 29 Nordeste 0 -- -- 24
2019-05-25 16:00:00 26.6 11 Norte 31 Nordeste 0 -- -- 25
2019-05-25 15:00:00 25.8 13 Norte 28 Norte 0 -- -- 29
2019-05-25 14:00:00 25 13 Nordeste 28 Este 0 -- -- 31
2019-05-25 13:00:00 23.8 13 Nordeste 28 Este 0 -- -- 34
2019-05-25 12:00:00 22.4 12 Nordeste 23 Este 0 -- -- 35
2019-05-25 11:00:00 21 8 Nordeste 20 Este 0 -- -- 39
2019-05-25 10:00:00 18.9 11 Nordeste 23 Nordeste 0 -- -- 46
2019-05-25 09:00:00 16.4 13 Norte 19 Nordeste 0 -- -- 51
2019-05-25 08:00:00 14.2 13 Nordeste 19 Norte 0 -- -- 57
2019-05-25 07:00:00 13.9 14 Norte 19 Norte 0 -- -- 57
2019-05-25 06:00:00 15 13 Nordeste 22 Nordeste 0 -- -- 53
2019-05-25 05:00:00 15.9 13 Nordeste 20 Nordeste 0 -- -- 49
2019-05-25 04:00:00 16.8 11 Nordeste 27 Nordeste 0 -- -- 44
2019-05-25 03:00:00 17.8 12 Nordeste 21 Nordeste 0 -- -- 40
2019-05-25 02:00:00 19.2 14 Nordeste 27 Norte 0 -- -- 36
2019-05-25 01:00:00 19.8 12 Norte 19 Norte 0 -- -- 35
2019-05-25 00:00:00 20 6 Nordeste 20 Norte 0 -- -- 35